sensor_id;sensor_type;location;lat;lon;timestamp;P1;durP1;ratioP1;P2;durP2;ratioP2
77111;SDS011;66064;50.226;14.344;2023-12-20T00:00:09;9.18;;;8.38;;
77111;SDS011;66064;50.226;14.344;2023-12-20T00:02:36;11.77;;;10.68;;
77111;SDS011;66064;50.226;14.344;2023-12-20T00:05:04;9.65;;;8.85;;
77111;SDS011;66064;50.226;14.344;2023-12-20T00:07:30;9.77;;;8.98;;
77111;SDS011;66064;50.226;14.344;2023-12-20T00:09:56;10.30;;;9.50;;
77111;SDS011;66064;50.226;14.344;2023-12-20T00:12:22;10.25;;;9.45;;
77111;SDS011;66064;50.226;14.344;2023-12-20T00:14:48;9.32;;;8.65;;
77111;SDS011;66064;50.226;14.344;2023-12-20T00:17:15;10.30;;;9.40;;
77111;SDS011;66064;50.226;14.344;2023-12-20T00:19:41;12.82;;;11.80;;
77111;SDS011;66064;50.226;14.344;2023-12-20T00:22:07;11.85;;;11.02;;
77111;SDS011;66064;50.226;14.344;2023-12-20T00:24:34;10.70;;;9.85;;
77111;SDS011;66064;50.226;14.344;2023-12-20T00:27:00;9.82;;;8.98;;
77111;SDS011;66064;50.226;14.344;2023-12-20T00:29:26;9.00;;;8.30;;
77111;SDS011;66064;50.226;14.344;2023-12-20T00:31:52;10.30;;;9.45;;
77111;SDS011;66064;50.226;14.344;2023-12-20T00:34:18;11.15;;;9.85;;
77111;SDS011;66064;50.226;14.344;2023-12-20T00:36:45;12.77;;;11.70;;
77111;SDS011;66064;50.226;14.344;2023-12-20T00:39:10;11.32;;;10.52;;
77111;SDS011;66064;50.226;14.344;2023-12-20T00:41:37;9.57;;;8.70;;
77111;SDS011;66064;50.226;14.344;2023-12-20T00:44:03;10.82;;;9.93;;
77111;SDS011;66064;50.226;14.344;2023-12-20T00:46:29;12.45;;;11.20;;
77111;SDS011;66064;50.226;14.344;2023-12-20T00:48:55;10.55;;;9.55;;
77111;SDS011;66064;50.226;14.344;2023-12-20T00:51:21;11.85;;;10.93;;
77111;SDS011;66064;50.226;14.344;2023-12-20T00:53:50;10.73;;;9.82;;
77111;SDS011;66064;50.226;14.344;2023-12-20T00:56:21;12.05;;;10.93;;
77111;SDS011;66064;50.226;14.344;2023-12-20T00:58:53;13.13;;;12.02;;
77111;SDS011;66064;50.226;14.344;2023-12-20T01:01:19;10.68;;;9.73;;
77111;SDS011;66064;50.226;14.344;2023-12-20T01:03:46;13.27;;;11.88;;
77111;SDS011;66064;50.226;14.344;2023-12-20T01:06:13;11.90;;;10.85;;
77111;SDS011;66064;50.226;14.344;2023-12-20T01:08:39;12.45;;;11.43;;
77111;SDS011;66064;50.226;14.344;2023-12-20T01:11:06;10.77;;;9.77;;
77111;SDS011;66064;50.226;14.344;2023-12-20T01:13:32;13.05;;;11.95;;
77111;SDS011;66064;50.226;14.344;2023-12-20T01:15:58;11.15;;;10.05;;
77111;SDS011;66064;50.226;14.344;2023-12-20T01:18:24;12.20;;;11.10;;
77111;SDS011;66064;50.226;14.344;2023-12-20T01:20:51;13.80;;;12.40;;
77111;SDS011;66064;50.226;14.344;2023-12-20T01:23:18;11.70;;;10.82;;
77111;SDS011;66064;50.226;14.344;2023-12-20T01:25:44;12.48;;;11.48;;
77111;SDS011;66064;50.226;14.344;2023-12-20T01:28:10;12.82;;;11.52;;
77111;SDS011;66064;50.226;14.344;2023-12-20T01:30:36;14.50;;;13.25;;
77111;SDS011;66064;50.226;14.344;2023-12-20T01:33:02;12.05;;;10.63;;
77111;SDS011;66064;50.226;14.344;2023-12-20T01:35:28;12.63;;;11.45;;
77111;SDS011;66064;50.226;14.344;2023-12-20T01:37:54;12.75;;;11.75;;
77111;SDS011;66064;50.226;14.344;2023-12-20T01:40:23;12.60;;;11.57;;
77111;SDS011;66064;50.226;14.344;2023-12-20T01:43:03;15.30;;;14.00;;
77111;SDS011;66064;50.226;14.344;2023-12-20T01:45:34;12.55;;;10.82;;
77111;SDS011;66064;50.226;14.344;2023-12-20T01:48:00;12.00;;;10.90;;
77111;SDS011;66064;50.226;14.344;2023-12-20T01:50:28;12.45;;;11.25;;
77111;SDS011;66064;50.226;14.344;2023-12-20T01:52:58;12.48;;;10.77;;
77111;SDS011;66064;50.226;14.344;2023-12-20T01:55:27;13.65;;;11.80;;
77111;SDS011;66064;50.226;14.344;2023-12-20T01:57:56;10.68;;;9.60;;
77111;SDS011;66064;50.226;14.344;2023-12-20T02:00:25;10.32;;;9.52;;
77111;SDS011;66064;50.226;14.344;2023-12-20T02:02:54;13.00;;;11.98;;
77111;SDS011;66064;50.226;14.344;2023-12-20T02:05:21;10.13;;;9.32;;
77111;SDS011;66064;50.226;14.344;2023-12-20T02:07:48;12.15;;;10.93;;
77111;SDS011;66064;50.226;14.344;2023-12-20T02:10:15;10.45;;;9.50;;
77111;SDS011;66064;50.226;14.344;2023-12-20T02:12:41;12.48;;;11.38;;
77111;SDS011;66064;50.226;14.344;2023-12-20T02:15:07;9.30;;;8.50;;
77111;SDS011;66064;50.226;14.344;2023-12-20T02:17:33;11.25;;;10.25;;
77111;SDS011;66064;50.226;14.344;2023-12-20T02:20:00;11.15;;;10.05;;
77111;SDS011;66064;50.226;14.344;2023-12-20T02:22:26;9.88;;;8.98;;
77111;SDS011;66064;50.226;14.344;2023-12-20T02:24:52;10.18;;;9.27;;
77111;SDS011;66064;50.226;14.344;2023-12-20T02:27:18;9.52;;;8.60;;
77111;SDS011;66064;50.226;14.344;2023-12-20T02:29:46;9.43;;;8.73;;
77111;SDS011;66064;50.226;14.344;2023-12-20T02:32:13;11.90;;;10.80;;
77111;SDS011;66064;50.226;14.344;2023-12-20T02:34:40;10.55;;;9.50;;
77111;SDS011;66064;50.226;14.344;2023-12-20T02:37:06;11.23;;;10.32;;
77111;SDS011;66064;50.226;14.344;2023-12-20T02:39:32;12.25;;;11.35;;
77111;SDS011;66064;50.226;14.344;2023-12-20T02:41:59;11.13;;;10.15;;
77111;SDS011;66064;50.226;14.344;2023-12-20T02:44:25;11.13;;;10.32;;
77111;SDS011;66064;50.226;14.344;2023-12-20T02:46:51;12.95;;;11.93;;
77111;SDS011;66064;50.226;14.344;2023-12-20T02:49:17;9.77;;;9.05;;
77111;SDS011;66064;50.226;14.344;2023-12-20T02:51:43;10.77;;;9.88;;
77111;SDS011;66064;50.226;14.344;2023-12-20T02:54:10;10.57;;;9.68;;
77111;SDS011;66064;50.226;14.344;2023-12-20T02:56:36;11.45;;;10.02;;
77111;SDS011;66064;50.226;14.344;2023-12-20T02:59:02;12.77;;;11.70;;
77111;SDS011;66064;50.226;14.344;2023-12-20T03:01:31;9.25;;;8.40;;
77111;SDS011;66064;50.226;14.344;2023-12-20T03:03:57;10.05;;;9.15;;
77111;SDS011;66064;50.226;14.344;2023-12-20T03:06:23;10.13;;;9.23;;
77111;SDS011;66064;50.226;14.344;2023-12-20T03:08:50;10.98;;;10.07;;
77111;SDS011;66064;50.226;14.344;2023-12-20T03:11:16;10.50;;;9.65;;
77111;SDS011;66064;50.226;14.344;2023-12-20T03:13:42;12.68;;;11.68;;
77111;SDS011;66064;50.226;14.344;2023-12-20T03:16:08;11.75;;;10.65;;
77111;SDS011;66064;50.226;14.344;2023-12-20T03:18:36;11.90;;;10.75;;
77111;SDS011;66064;50.226;14.344;2023-12-20T03:21:02;12.85;;;10.57;;
77111;SDS011;66064;50.226;14.344;2023-12-20T03:23:29;11.38;;;10.38;;
77111;SDS011;66064;50.226;14.344;2023-12-20T03:25:56;13.93;;;12.82;;
77111;SDS011;66064;50.226;14.344;2023-12-20T03:28:22;11.82;;;10.65;;
77111;SDS011;66064;50.226;14.344;2023-12-20T03:30:50;11.45;;;10.07;;
77111;SDS011;66064;50.226;14.344;2023-12-20T03:33:17;10.60;;;9.65;;
77111;SDS011;66064;50.226;14.344;2023-12-20T03:35:43;13.80;;;12.85;;
77111;SDS011;66064;50.226;14.344;2023-12-20T03:38:09;12.88;;;11.68;;
77111;SDS011;66064;50.226;14.344;2023-12-20T03:40:37;10.60;;;9.48;;
77111;SDS011;66064;50.226;14.344;2023-12-20T03:43:03;11.77;;;10.80;;
77111;SDS011;66064;50.226;14.344;2023-12-20T03:45:29;11.23;;;10.07;;
77111;SDS011;66064;50.226;14.344;2023-12-20T03:47:57;11.93;;;10.73;;
77111;SDS011;66064;50.226;14.344;2023-12-20T03:50:23;11.43;;;10.52;;
77111;SDS011;66064;50.226;14.344;2023-12-20T03:52:49;13.23;;;9.80;;
77111;SDS011;66064;50.226;14.344;2023-12-20T03:55:15;11.82;;;10.82;;
77111;SDS011;66064;50.226;14.344;2023-12-20T03:57:43;11.00;;;10.00;;
77111;SDS011;66064;50.226;14.344;2023-12-20T04:00:10;9.95;;;8.95;;
77111;SDS011;66064;50.226;14.344;2023-12-20T04:02:40;10.45;;;9.65;;
77111;SDS011;66064;50.226;14.344;2023-12-20T04:05:08;9.65;;;8.93;;
77111;SDS011;66064;50.226;14.344;2023-12-20T04:07:35;10.05;;;9.23;;
77111;SDS011;66064;50.226;14.344;2023-12-20T04:10:02;7.90;;;7.30;;
77111;SDS011;66064;50.226;14.344;2023-12-20T04:12:30;9.95;;;8.80;;
77111;SDS011;66064;50.226;14.344;2023-12-20T04:14:56;10.88;;;9.82;;
77111;SDS011;66064;50.226;14.344;2023-12-20T04:17:23;8.73;;;8.07;;
77111;SDS011;66064;50.226;14.344;2023-12-20T04:19:49;11.20;;;10.40;;
77111;SDS011;66064;50.226;14.344;2023-12-20T04:22:17;9.98;;;9.18;;
77111;SDS011;66064;50.226;14.344;2023-12-20T04:24:47;11.00;;;10.20;;
77111;SDS011;66064;50.226;14.344;2023-12-20T04:27:13;9.90;;;8.90;;
77111;SDS011;66064;50.226;14.344;2023-12-20T04:29:40;9.07;;;7.22;;
77111;SDS011;66064;50.226;14.344;2023-12-20T04:32:07;11.13;;;10.32;;
77111;SDS011;66064;50.226;14.344;2023-12-20T04:34:33;12.13;;;11.02;;
77111;SDS011;66064;50.226;14.344;2023-12-20T04:36:59;10.52;;;9.73;;
77111;SDS011;66064;50.226;14.344;2023-12-20T04:39:27;11.57;;;10.73;;
77111;SDS011;66064;50.226;14.344;2023-12-20T04:41:53;10.85;;;10.15;;
77111;SDS011;66064;50.226;14.344;2023-12-20T04:44:19;9.95;;;9.25;;
77111;SDS011;66064;50.226;14.344;2023-12-20T04:46:46;9.10;;;8.30;;
77111;SDS011;66064;50.226;14.344;2023-12-20T04:49:12;9.60;;;8.90;;
77111;SDS011;66064;50.226;14.344;2023-12-20T04:51:39;9.25;;;8.57;;
77111;SDS011;66064;50.226;14.344;2023-12-20T04:54:05;8.90;;;8.18;;
77111;SDS011;66064;50.226;14.344;2023-12-20T04:56:31;10.85;;;10.00;;
77111;SDS011;66064;50.226;14.344;2023-12-20T04:58:57;9.88;;;9.07;;
77111;SDS011;66064;50.226;14.344;2023-12-20T05:01:23;8.40;;;7.70;;
77111;SDS011;66064;50.226;14.344;2023-12-20T05:03:49;8.30;;;7.70;;
77111;SDS011;66064;50.226;14.344;2023-12-20T05:06:15;6.95;;;6.45;;
77111;SDS011;66064;50.226;14.344;2023-12-20T05:08:41;12.23;;;11.43;;
77111;SDS011;66064;50.226;14.344;2023-12-20T05:11:08;8.00;;;7.43;;
77111;SDS011;66064;50.226;14.344;2023-12-20T05:13:35;12.80;;;11.82;;
77111;SDS011;66064;50.226;14.344;2023-12-20T05:16:01;8.00;;;7.40;;
77111;SDS011;66064;50.226;14.344;2023-12-20T05:18:26;9.35;;;8.75;;
77111;SDS011;66064;50.226;14.344;2023-12-20T05:20:53;9.60;;;8.98;;
77111;SDS011;66064;50.226;14.344;2023-12-20T05:23:19;10.50;;;9.75;;
77111;SDS011;66064;50.226;14.344;2023-12-20T05:25:47;8.55;;;7.82;;
77111;SDS011;66064;50.226;14.344;2023-12-20T05:28:12;10.30;;;9.60;;
77111;SDS011;66064;50.226;14.344;2023-12-20T05:30:40;8.93;;;8.25;;
77111;SDS011;66064;50.226;14.344;2023-12-20T05:33:06;8.00;;;7.40;;
77111;SDS011;66064;50.226;14.344;2023-12-20T05:35:32;6.80;;;6.20;;
77111;SDS011;66064;50.226;14.344;2023-12-20T05:37:58;9.40;;;8.68;;
77111;SDS011;66064;50.226;14.344;2023-12-20T05:40:24;6.78;;;6.30;;
77111;SDS011;66064;50.226;14.344;2023-12-20T05:42:51;10.07;;;9.38;;
77111;SDS011;66064;50.226;14.344;2023-12-20T05:45:17;8.02;;;7.38;;
77111;SDS011;66064;50.226;14.344;2023-12-20T05:47:43;10.50;;;9.73;;
77111;SDS011;66064;50.226;14.344;2023-12-20T05:50:09;8.75;;;8.15;;
77111;SDS011;66064;50.226;14.344;2023-12-20T05:52:35;7.45;;;6.95;;
77111;SDS011;66064;50.226;14.344;2023-12-20T05:55:01;8.25;;;7.65;;
77111;SDS011;66064;50.226;14.344;2023-12-20T05:57:27;8.50;;;7.75;;
77111;SDS011;66064;50.226;14.344;2023-12-20T05:59:54;8.32;;;7.82;;
77111;SDS011;66064;50.226;14.344;2023-12-20T06:02:20;8.13;;;7.63;;
77111;SDS011;66064;50.226;14.344;2023-12-20T06:04:46;7.78;;;7.28;;
77111;SDS011;66064;50.226;14.344;2023-12-20T06:07:12;10.23;;;9.65;;
77111;SDS011;66064;50.226;14.344;2023-12-20T06:09:39;7.97;;;7.18;;
77111;SDS011;66064;50.226;14.344;2023-12-20T06:12:05;5.97;;;5.65;;
77111;SDS011;66064;50.226;14.344;2023-12-20T06:14:33;8.52;;;8.13;;
77111;SDS011;66064;50.226;14.344;2023-12-20T06:17:00;6.88;;;6.47;;
77111;SDS011;66064;50.226;14.344;2023-12-20T06:19:27;8.90;;;8.32;;
77111;SDS011;66064;50.226;14.344;2023-12-20T06:21:53;7.18;;;6.78;;
77111;SDS011;66064;50.226;14.344;2023-12-20T06:24:19;8.95;;;8.45;;
77111;SDS011;66064;50.226;14.344;2023-12-20T06:26:45;8.00;;;7.57;;
77111;SDS011;66064;50.226;14.344;2023-12-20T06:29:11;8.75;;;8.25;;
77111;SDS011;66064;50.226;14.344;2023-12-20T06:31:37;7.35;;;6.80;;
77111;SDS011;66064;50.226;14.344;2023-12-20T06:34:03;8.32;;;7.90;;
77111;SDS011;66064;50.226;14.344;2023-12-20T06:36:29;8.98;;;8.48;;
77111;SDS011;66064;50.226;14.344;2023-12-20T06:38:55;6.72;;;6.32;;
77111;SDS011;66064;50.226;14.344;2023-12-20T06:41:21;8.20;;;7.70;;
77111;SDS011;66064;50.226;14.344;2023-12-20T06:43:50;9.82;;;9.32;;
77111;SDS011;66064;50.226;14.344;2023-12-20T06:46:17;8.57;;;7.97;;
77111;SDS011;66064;50.226;14.344;2023-12-20T06:48:43;7.82;;;7.43;;
77111;SDS011;66064;50.226;14.344;2023-12-20T06:51:17;7.40;;;6.97;;
77111;SDS011;66064;50.226;14.344;2023-12-20T06:53:46;6.22;;;5.82;;
77111;SDS011;66064;50.226;14.344;2023-12-20T06:56:12;6.55;;;6.18;;
77111;SDS011;66064;50.226;14.344;2023-12-20T06:58:38;7.80;;;7.40;;
77111;SDS011;66064;50.226;14.344;2023-12-20T07:01:04;7.05;;;6.65;;
77111;SDS011;66064;50.226;14.344;2023-12-20T07:03:30;7.10;;;6.70;;
77111;SDS011;66064;50.226;14.344;2023-12-20T07:05:56;7.53;;;7.13;;
77111;SDS011;66064;50.226;14.344;2023-12-20T07:08:22;7.43;;;7.03;;
77111;SDS011;66064;50.226;14.344;2023-12-20T07:10:48;7.22;;;6.75;;
77111;SDS011;66064;50.226;14.344;2023-12-20T07:13:15;8.43;;;7.82;;
77111;SDS011;66064;50.226;14.344;2023-12-20T07:15:41;7.82;;;7.22;;
77111;SDS011;66064;50.226;14.344;2023-12-20T07:18:07;7.35;;;6.95;;
77111;SDS011;66064;50.226;14.344;2023-12-20T07:20:33;8.55;;;7.93;;
77111;SDS011;66064;50.226;14.344;2023-12-20T07:22:59;8.55;;;8.02;;
77111;SDS011;66064;50.226;14.344;2023-12-20T07:25:25;7.93;;;7.53;;
77111;SDS011;66064;50.226;14.344;2023-12-20T07:27:51;7.10;;;6.60;;
77111;SDS011;66064;50.226;14.344;2023-12-20T07:30:18;7.50;;;7.10;;
77111;SDS011;66064;50.226;14.344;2023-12-20T07:32:44;9.00;;;8.50;;
77111;SDS011;66064;50.226;14.344;2023-12-20T07:35:10;7.00;;;6.60;;
77111;SDS011;66064;50.226;14.344;2023-12-20T07:37:37;8.10;;;7.70;;
77111;SDS011;66064;50.226;14.344;2023-12-20T07:40:02;8.45;;;8.05;;
77111;SDS011;66064;50.226;14.344;2023-12-20T07:42:29;7.20;;;6.72;;
77111;SDS011;66064;50.226;14.344;2023-12-20T07:44:55;7.43;;;6.97;;
77111;SDS011;66064;50.226;14.344;2023-12-20T07:47:21;6.30;;;5.90;;
77111;SDS011;66064;50.226;14.344;2023-12-20T07:49:48;7.30;;;6.90;;
77111;SDS011;66064;50.226;14.344;2023-12-20T07:52:15;7.25;;;6.85;;
77111;SDS011;66064;50.226;14.344;2023-12-20T07:54:41;8.57;;;8.07;;
77111;SDS011;66064;50.226;14.344;2023-12-20T07:57:08;6.75;;;6.35;;
77111;SDS011;66064;50.226;14.344;2023-12-20T07:59:35;8.57;;;7.93;;
77111;SDS011;66064;50.226;14.344;2023-12-20T08:02:01;8.38;;;7.88;;
77111;SDS011;66064;50.226;14.344;2023-12-20T08:04:27;8.07;;;7.53;;
77111;SDS011;66064;50.226;14.344;2023-12-20T08:06:53;8.75;;;8.07;;
77111;SDS011;66064;50.226;14.344;2023-12-20T08:09:19;7.13;;;6.43;;
77111;SDS011;66064;50.226;14.344;2023-12-20T08:11:46;6.50;;;6.03;;
77111;SDS011;66064;50.226;14.344;2023-12-20T08:14:12;8.10;;;7.50;;
77111;SDS011;66064;50.226;14.344;2023-12-20T08:16:39;7.13;;;6.68;;
77111;SDS011;66064;50.226;14.344;2023-12-20T08:19:05;7.63;;;7.13;;
77111;SDS011;66064;50.226;14.344;2023-12-20T08:21:31;7.07;;;6.57;;
77111;SDS011;66064;50.226;14.344;2023-12-20T08:23:57;7.38;;;6.78;;
77111;SDS011;66064;50.226;14.344;2023-12-20T08:26:24;8.75;;;8.15;;
77111;SDS011;66064;50.226;14.344;2023-12-20T08:28:50;6.50;;;6.10;;
77111;SDS011;66064;50.226;14.344;2023-12-20T08:31:16;8.43;;;7.93;;
77111;SDS011;66064;50.226;14.344;2023-12-20T08:33:43;7.22;;;6.72;;
77111;SDS011;66064;50.226;14.344;2023-12-20T08:36:11;9.93;;;9.13;;
77111;SDS011;66064;50.226;14.344;2023-12-20T08:38:37;7.22;;;6.72;;
77111;SDS011;66064;50.226;14.344;2023-12-20T08:41:04;7.68;;;7.18;;
77111;SDS011;66064;50.226;14.344;2023-12-20T08:43:36;7.38;;;6.80;;
77111;SDS011;66064;50.226;14.344;2023-12-20T08:46:02;8.20;;;7.70;;
77111;SDS011;66064;50.226;14.344;2023-12-20T08:48:28;8.55;;;7.95;;
77111;SDS011;66064;50.226;14.344;2023-12-20T08:50:54;8.30;;;7.78;;
77111;SDS011;66064;50.226;14.344;2023-12-20T08:53:20;7.22;;;6.80;;
77111;SDS011;66064;50.226;14.344;2023-12-20T08:55:46;6.60;;;6.20;;
77111;SDS011;66064;50.226;14.344;2023-12-20T08:58:13;8.27;;;7.72;;
77111;SDS011;66064;50.226;14.344;2023-12-20T09:00:40;7.55;;;7.15;;
77111;SDS011;66064;50.226;14.344;2023-12-20T09:03:07;7.82;;;7.22;;
77111;SDS011;66064;50.226;14.344;2023-12-20T09:05:33;8.05;;;7.55;;
77111;SDS011;66064;50.226;14.344;2023-12-20T09:08:00;6.57;;;6.18;;
77111;SDS011;66064;50.226;14.344;2023-12-20T09:10:26;6.72;;;6.32;;
77111;SDS011;66064;50.226;14.344;2023-12-20T09:12:52;8.30;;;7.88;;
77111;SDS011;66064;50.226;14.344;2023-12-20T09:15:23;6.88;;;6.40;;
77111;SDS011;66064;50.226;14.344;2023-12-20T09:17:51;5.28;;;4.97;;
77111;SDS011;66064;50.226;14.344;2023-12-20T09:20:17;7.18;;;6.78;;
77111;SDS011;66064;50.226;14.344;2023-12-20T09:22:43;7.85;;;7.35;;
77111;SDS011;66064;50.226;14.344;2023-12-20T09:25:10;5.93;;;5.53;;
77111;SDS011;66064;50.226;14.344;2023-12-20T09:27:36;6.70;;;6.30;;
77111;SDS011;66064;50.226;14.344;2023-12-20T09:30:03;6.35;;;5.95;;
77111;SDS011;66064;50.226;14.344;2023-12-20T09:32:31;5.40;;;5.00;;
77111;SDS011;66064;50.226;14.344;2023-12-20T09:34:57;4.45;;;4.15;;
77111;SDS011;66064;50.226;14.344;2023-12-20T09:37:27;4.13;;;3.83;;
77111;SDS011;66064;50.226;14.344;2023-12-20T09:39:54;3.97;;;3.67;;
77111;SDS011;66064;50.226;14.344;2023-12-20T09:43:03;4.88;;;4.57;;
77111;SDS011;66064;50.226;14.344;2023-12-20T09:45:13;5.78;;;5.38;;
77111;SDS011;66064;50.226;14.344;2023-12-20T09:47:43;5.28;;;4.95;;
77111;SDS011;66064;50.226;14.344;2023-12-20T09:50:10;5.35;;;4.45;;
77111;SDS011;66064;50.226;14.344;2023-12-20T09:52:37;5.70;;;5.32;;
77111;SDS011;66064;50.226;14.344;2023-12-20T09:55:05;5.45;;;5.05;;
77111;SDS011;66064;50.226;14.344;2023-12-20T09:57:33;6.05;;;5.68;;
77111;SDS011;66064;50.226;14.344;2023-12-20T10:00:00;6.75;;;6.28;;
77111;SDS011;66064;50.226;14.344;2023-12-20T10:02:26;5.15;;;4.75;;
77111;SDS011;66064;50.226;14.344;2023-12-20T10:04:53;8.40;;;7.97;;
77111;SDS011;66064;50.226;14.344;2023-12-20T10:07:20;5.10;;;4.80;;
77111;SDS011;66064;50.226;14.344;2023-12-20T10:09:48;6.45;;;6.05;;
77111;SDS011;66064;50.226;14.344;2023-12-20T10:12:14;7.28;;;6.88;;
77111;SDS011;66064;50.226;14.344;2023-12-20T10:14:40;6.72;;;6.32;;
77111;SDS011;66064;50.226;14.344;2023-12-20T10:17:06;6.68;;;6.25;;
77111;SDS011;66064;50.226;14.344;2023-12-20T10:19:33;5.38;;;4.97;;
77111;SDS011;66064;50.226;14.344;2023-12-20T10:21:59;6.80;;;6.25;;
77111;SDS011;66064;50.226;14.344;2023-12-20T10:24:25;6.50;;;6.10;;
77111;SDS011;66064;50.226;14.344;2023-12-20T10:27:07;6.13;;;5.68;;
77111;SDS011;66064;50.226;14.344;2023-12-20T10:29:34;7.80;;;7.30;;
77111;SDS011;66064;50.226;14.344;2023-12-20T10:32:21;8.20;;;7.60;;
77111;SDS011;66064;50.226;14.344;2023-12-20T10:34:48;5.90;;;5.32;;
77111;SDS011;66064;50.226;14.344;2023-12-20T10:37:14;7.05;;;6.65;;
77111;SDS011;66064;50.226;14.344;2023-12-20T10:39:40;7.22;;;6.63;;
77111;SDS011;66064;50.226;14.344;2023-12-20T10:42:09;5.65;;;5.20;;
77111;SDS011;66064;50.226;14.344;2023-12-20T10:44:38;5.88;;;5.47;;
77111;SDS011;66064;50.226;14.344;2023-12-20T10:47:04;5.22;;;4.82;;
77111;SDS011;66064;50.226;14.344;2023-12-20T10:49:31;5.72;;;5.40;;
77111;SDS011;66064;50.226;14.344;2023-12-20T10:52:01;5.95;;;5.38;;
77111;SDS011;66064;50.226;14.344;2023-12-20T10:54:29;6.00;;;5.60;;
77111;SDS011;66064;50.226;14.344;2023-12-20T10:56:55;6.68;;;6.22;;
77111;SDS011;66064;50.226;14.344;2023-12-20T10:59:24;6.70;;;6.25;;
77111;SDS011;66064;50.226;14.344;2023-12-20T11:01:50;6.22;;;5.82;;
77111;SDS011;66064;50.226;14.344;2023-12-20T11:04:23;5.88;;;5.47;;
77111;SDS011;66064;50.226;14.344;2023-12-20T11:07:01;6.07;;;5.65;;
77111;SDS011;66064;50.226;14.344;2023-12-20T11:09:49;6.35;;;5.95;;
77111;SDS011;66064;50.226;14.344;2023-12-20T11:12:34;6.90;;;6.50;;
77111;SDS011;66064;50.226;14.344;2023-12-20T11:15:08;5.38;;;5.07;;
77111;SDS011;66064;50.226;14.344;2023-12-20T11:17:34;6.30;;;5.60;;
77111;SDS011;66064;50.226;14.344;2023-12-20T11:22:29;6.85;;;6.43;;
77111;SDS011;66064;50.226;14.344;2023-12-20T11:25:03;7.18;;;6.78;;
77111;SDS011;66064;50.226;14.344;2023-12-20T11:27:33;6.03;;;5.57;;
77111;SDS011;66064;50.226;14.344;2023-12-20T11:29:59;7.28;;;6.85;;
77111;SDS011;66064;50.226;14.344;2023-12-20T11:32:33;5.47;;;5.07;;
77111;SDS011;66064;50.226;14.344;2023-12-20T11:37:41;5.93;;;5.53;;
77111;SDS011;66064;50.226;14.344;2023-12-20T11:40:13;5.68;;;5.32;;
77111;SDS011;66064;50.226;14.344;2023-12-20T11:42:41;4.85;;;4.28;;
77111;SDS011;66064;50.226;14.344;2023-12-20T11:45:09;4.53;;;4.22;;
77111;SDS011;66064;50.226;14.344;2023-12-20T11:47:37;6.50;;;6.00;;
77111;SDS011;66064;50.226;14.344;2023-12-20T11:50:04;7.72;;;7.22;;
77111;SDS011;66064;50.226;14.344;2023-12-20T11:52:30;7.00;;;6.50;;
77111;SDS011;66064;50.226;14.344;2023-12-20T11:54:57;6.78;;;6.28;;
77111;SDS011;66064;50.226;14.344;2023-12-20T11:57:24;7.30;;;6.82;;
77111;SDS011;66064;50.226;14.344;2023-12-20T11:59:51;5.82;;;5.43;;
77111;SDS011;66064;50.226;14.344;2023-12-20T12:02:17;7.43;;;7.00;;
77111;SDS011;66064;50.226;14.344;2023-12-20T12:04:44;5.35;;;4.95;;
77111;SDS011;66064;50.226;14.344;2023-12-20T12:07:09;4.88;;;4.50;;
77111;SDS011;66064;50.226;14.344;2023-12-20T12:09:36;6.90;;;5.50;;
77111;SDS011;66064;50.226;14.344;2023-12-20T12:12:02;5.50;;;5.15;;
77111;SDS011;66064;50.226;14.344;2023-12-20T12:14:28;5.90;;;5.50;;
77111;SDS011;66064;50.226;14.344;2023-12-20T12:16:54;6.10;;;5.50;;
77111;SDS011;66064;50.226;14.344;2023-12-20T12:19:23;5.35;;;4.95;;
77111;SDS011;66064;50.226;14.344;2023-12-20T12:21:51;5.18;;;4.75;;
77111;SDS011;66064;50.226;14.344;2023-12-20T12:24:30;5.40;;;5.00;;
77111;SDS011;66064;50.226;14.344;2023-12-20T12:26:57;5.70;;;5.35;;
77111;SDS011;66064;50.226;14.344;2023-12-20T12:29:24;6.07;;;5.68;;
77111;SDS011;66064;50.226;14.344;2023-12-20T12:31:50;4.97;;;4.68;;
77111;SDS011;66064;50.226;14.344;2023-12-20T12:34:19;5.00;;;4.55;;
77111;SDS011;66064;50.226;14.344;2023-12-20T12:36:45;4.70;;;4.20;;
77111;SDS011;66064;50.226;14.344;2023-12-20T12:39:12;5.60;;;5.18;;
77111;SDS011;66064;50.226;14.344;2023-12-20T12:44:07;4.30;;;3.83;;
77111;SDS011;66064;50.226;14.344;2023-12-20T12:46:33;5.25;;;4.82;;
77111;SDS011;66064;50.226;14.344;2023-12-20T12:48:59;5.43;;;4.93;;
77111;SDS011;66064;50.226;14.344;2023-12-20T12:51:25;6.35;;;5.88;;
77111;SDS011;66064;50.226;14.344;2023-12-20T12:53:52;5.03;;;4.63;;
77111;SDS011;66064;50.226;14.344;2023-12-20T12:56:18;6.32;;;5.72;;
77111;SDS011;66064;50.226;14.344;2023-12-20T12:58:44;5.32;;;4.93;;
77111;SDS011;66064;50.226;14.344;2023-12-20T13:01:11;7.43;;;6.93;;
77111;SDS011;66064;50.226;14.344;2023-12-20T13:03:37;7.13;;;6.53;;
77111;SDS011;66064;50.226;14.344;2023-12-20T13:06:03;6.10;;;5.50;;
77111;SDS011;66064;50.226;14.344;2023-12-20T13:08:31;6.18;;;5.78;;
77111;SDS011;66064;50.226;14.344;2023-12-20T13:10:58;8.55;;;8.00;;
77111;SDS011;66064;50.226;14.344;2023-12-20T13:13:26;7.72;;;7.32;;
77111;SDS011;66064;50.226;14.344;2023-12-20T13:15:52;6.75;;;6.25;;
77111;SDS011;66064;50.226;14.344;2023-12-20T13:18:21;7.82;;;7.28;;
77111;SDS011;66064;50.226;14.344;2023-12-20T13:20:48;6.03;;;5.53;;
77111;SDS011;66064;50.226;14.344;2023-12-20T13:23:14;6.47;;;6.00;;
77111;SDS011;66064;50.226;14.344;2023-12-20T13:25:44;6.35;;;5.95;;
77111;SDS011;66064;50.226;14.344;2023-12-20T13:28:13;7.30;;;6.78;;
77111;SDS011;66064;50.226;14.344;2023-12-20T13:30:39;5.88;;;5.47;;
77111;SDS011;66064;50.226;14.344;2023-12-20T13:33:06;5.22;;;4.93;;
77111;SDS011;66064;50.226;14.344;2023-12-20T13:35:32;5.97;;;5.45;;
77111;SDS011;66064;50.226;14.344;2023-12-20T13:38:00;5.93;;;5.53;;
77111;SDS011;66064;50.226;14.344;2023-12-20T13:40:26;7.00;;;6.50;;
77111;SDS011;66064;50.226;14.344;2023-12-20T13:42:54;6.32;;;5.82;;
77111;SDS011;66064;50.226;14.344;2023-12-20T13:45:20;6.75;;;6.30;;
77111;SDS011;66064;50.226;14.344;2023-12-20T13:47:46;8.50;;;7.75;;
77111;SDS011;66064;50.226;14.344;2023-12-20T13:50:14;7.50;;;7.00;;
77111;SDS011;66064;50.226;14.344;2023-12-20T13:52:41;7.00;;;6.50;;
77111;SDS011;66064;50.226;14.344;2023-12-20T13:55:07;8.55;;;7.80;;
77111;SDS011;66064;50.226;14.344;2023-12-20T13:57:35;6.72;;;6.30;;
77111;SDS011;66064;50.226;14.344;2023-12-20T14:00:04;7.05;;;6.57;;
77111;SDS011;66064;50.226;14.344;2023-12-20T14:02:31;7.25;;;6.85;;
77111;SDS011;66064;50.226;14.344;2023-12-20T14:04:59;6.88;;;6.38;;
77111;SDS011;66064;50.226;14.344;2023-12-20T14:07:25;5.47;;;5.18;;
77111;SDS011;66064;50.226;14.344;2023-12-20T14:09:53;6.80;;;6.30;;
77111;SDS011;66064;50.226;14.344;2023-12-20T14:12:19;6.70;;;5.70;;
77111;SDS011;66064;50.226;14.344;2023-12-20T14:14:45;7.47;;;6.97;;
77111;SDS011;66064;50.226;14.344;2023-12-20T14:17:13;7.65;;;7.13;;
77111;SDS011;66064;50.226;14.344;2023-12-20T14:19:40;7.18;;;6.78;;
77111;SDS011;66064;50.226;14.344;2023-12-20T14:22:07;7.18;;;6.65;;
77111;SDS011;66064;50.226;14.344;2023-12-20T14:24:33;7.88;;;7.38;;
77111;SDS011;66064;50.226;14.344;2023-12-20T14:27:00;8.00;;;7.30;;
77111;SDS011;66064;50.226;14.344;2023-12-20T14:29:27;12.25;;;9.15;;
77111;SDS011;66064;50.226;14.344;2023-12-20T14:31:56;7.45;;;6.95;;
77111;SDS011;66064;50.226;14.344;2023-12-20T14:34:21;8.88;;;8.10;;